createdAt,value
2022-08-04T00:01:10.216Z,25.44
2022-08-04T00:03:44.840Z,25.42
2022-08-04T00:06:18.155Z,25.41
2022-08-04T00:08:49.851Z,25.36
2022-08-04T00:11:22.660Z,25.33
2022-08-04T00:14:02.537Z,25.33
2022-08-04T00:16:37.551Z,25.31
2022-08-04T00:19:11.276Z,25.29
2022-08-04T00:21:43.421Z,25.28
2022-08-04T00:24:13.915Z,25.26
2022-08-04T00:26:42.568Z,25.25
2022-08-04T00:29:11.924Z,25.23
2022-08-04T00:31:55.090Z,25.23
2022-08-04T00:34:27.082Z,25.20
2022-08-04T00:36:55.703Z,25.21
2022-08-04T00:39:23.852Z,25.20
2022-08-04T00:42:12.049Z,25.18
2022-08-04T00:44:52.924Z,25.18
2022-08-04T00:47:40.392Z,25.18
2022-08-04T00:50:11.027Z,25.15
2022-08-04T00:52:53.665Z,25.14
2022-08-04T00:55:42.352Z,25.13
2022-08-04T00:58:30.337Z,25.10
2022-08-04T01:01:03.719Z,25.07
2022-08-04T01:03:47.011Z,25.03
2022-08-04T01:06:25.786Z,25.01
2022-08-04T01:09:07.049Z,24.98
2022-08-04T01:11:58.303Z,24.93
2022-08-04T01:14:51.160Z,24.90
2022-08-04T01:17:26.569Z,24.84
2022-08-04T01:20:02.344Z,24.80
2022-08-04T01:22:59.422Z,24.79
2022-08-04T01:25:56.266Z,24.74
2022-08-04T01:28:43.051Z,24.74
2022-08-04T01:31:21.683Z,24.72
2022-08-04T01:34:02.994Z,24.70
2022-08-04T01:36:36.023Z,24.68
2022-08-04T01:39:25.870Z,24.66
2022-08-04T01:41:57.928Z,24.70
2022-08-04T01:44:29.597Z,24.71
2022-08-04T01:47:01.445Z,24.74
2022-08-04T01:49:40.129Z,24.76
2022-08-04T01:52:11.622Z,24.79
2022-08-04T01:54:43.204Z,24.82
2022-08-04T01:57:38.527Z,24.86
2022-08-04T02:00:01.025Z,24.86
2022-08-04T02:02:30.352Z,24.86
2022-08-04T02:04:58.210Z,24.86
2022-08-04T02:07:41.498Z,24.84
2022-08-04T02:10:16.112Z,24.84
2022-08-04T02:12:57.091Z,24.83
2022-08-04T02:15:29.960Z,24.82
2022-08-04T02:18:04.474Z,24.77
2022-08-04T02:20:35.949Z,24.75
2022-08-04T02:23:06.392Z,24.77
2022-08-04T02:25:38.924Z,24.76
2022-08-04T02:28:16.343Z,24.76
2022-08-04T02:30:51.615Z,24.78
2022-08-04T02:33:25.362Z,24.76
2022-08-04T02:35:58.242Z,24.75
2022-08-04T02:38:43.826Z,24.76
2022-08-04T02:41:12.373Z,24.77
2022-08-04T02:43:51.386Z,24.76
2022-08-04T02:46:22.063Z,24.73
2022-08-04T02:48:53.611Z,24.72
2022-08-04T02:51:25.481Z,24.68
2022-08-04T02:53:56.045Z,24.66
2022-08-04T02:56:24.974Z,24.66
2022-08-04T02:58:57.506Z,24.64
2022-08-04T03:01:25.351Z,24.63
2022-08-04T03:04:13.608Z,24.59
2022-08-04T03:07:20.537Z,24.58
2022-08-04T03:10:05.897Z,24.56
2022-08-04T03:12:59.015Z,24.55
2022-08-04T03:15:56.368Z,24.52
2022-08-04T03:18:59.054Z,24.51
2022-08-04T03:21:53.716Z,24.47
2022-08-04T03:24:43.805Z,24.44
2022-08-04T03:27:19.502Z,24.42
2022-08-04T03:30:06.563Z,24.38
2022-08-04T03:33:15.380Z,24.35
2022-08-04T03:36:31.701Z,24.33
2022-08-04T03:39:35.485Z,24.32
2022-08-04T03:42:35.204Z,24.28
2022-08-04T03:45:37.564Z,24.25
2022-08-04T03:48:14.634Z,24.22
2022-08-04T03:51:35.975Z,24.17
2022-08-04T03:54:31.631Z,24.10
2022-08-04T03:57:31.584Z,24.05
2022-08-04T04:00:09.962Z,24.02
2022-08-04T04:03:10.777Z,23.98
2022-08-04T04:06:04.592Z,23.94
2022-08-04T04:09:20.739Z,23.88
2022-08-04T04:12:28.633Z,23.84
2022-08-04T04:15:11.724Z,23.83
2022-08-04T04:17:58.948Z,23.80
2022-08-04T04:20:52.234Z,23.77
2022-08-04T04:23:31.948Z,23.76
2022-08-04T04:26:30.723Z,23.76
2022-08-04T04:29:07.568Z,23.77
2022-08-04T04:31:47.444Z,23.78
2022-08-04T04:34:27.520Z,23.79
2022-08-04T04:37:13.903Z,23.83
2022-08-04T04:39:53.157Z,23.82
2022-08-04T04:42:45.386Z,23.87
2022-08-04T04:45:32.913Z,23.89
2022-08-04T04:48:11.157Z,23.94
2022-08-04T04:51:07.159Z,24.01
2022-08-04T04:53:44.322Z,24.06
2022-08-04T04:56:18.356Z,24.09
2022-08-04T04:58:46.119Z,24.14
2022-08-04T05:01:35.612Z,24.17
2022-08-04T05:04:27.334Z,24.21
2022-08-04T05:07:18.472Z,24.26
2022-08-04T05:10:01.788Z,24.32
2022-08-04T05:14:35.435Z,24.39
2022-08-04T05:15:49.052Z,24.48
2022-08-04T05:18:22.391Z,24.55
2022-08-04T05:20:56.590Z,24.63
2022-08-04T05:23:27.705Z,24.72
2022-08-04T05:25:59.689Z,24.78
2022-08-04T05:28:30.828Z,24.85
2022-08-04T05:31:02.390Z,24.95
2022-08-04T05:33:35.686Z,25.04
2022-08-04T05:36:19.138Z,25.11
2022-08-04T05:38:54.842Z,25.15
2022-08-04T05:41:23.951Z,25.20
2022-08-04T05:44:02.034Z,25.26
2022-08-04T05:46:31.951Z,25.33
2022-08-04T05:48:59.732Z,25.42
2022-08-04T05:51:30.929Z,25.48
2022-08-04T05:53:59.749Z,25.49
2022-08-04T05:56:27.973Z,25.46
2022-08-04T05:58:57.547Z,25.44
2022-08-04T06:01:26.727Z,25.44
2022-08-04T06:03:56.913Z,25.45
2022-08-04T06:06:24.817Z,25.50
2022-08-04T06:08:57.699Z,25.56
2022-08-04T06:11:28.083Z,25.61
2022-08-04T06:13:59.536Z,25.69
2022-08-04T06:16:35.778Z,25.76
2022-08-04T06:20:03.087Z,25.83
2022-08-04T06:21:57.771Z,25.87
2022-08-04T06:24:30.007Z,25.90
2022-08-04T06:26:58.563Z,25.91
2022-08-04T06:29:34.199Z,25.93
2022-08-04T06:32:30.085Z,25.95
2022-08-04T06:35:03.332Z,25.88
2022-08-04T06:37:43.359Z,25.91
2022-08-04T06:40:29.970Z,25.96
2022-08-04T06:43:01.222Z,25.99
2022-08-04T06:45:30.468Z,25.98
2022-08-04T06:47:59.331Z,25.90
2022-08-04T06:51:27.048Z,25.87
2022-08-04T06:53:16.642Z,25.81
2022-08-04T06:55:48.667Z,25.80
2022-08-04T06:58:16.728Z,25.78
2022-08-04T07:00:46.958Z,25.78
2022-08-04T07:03:15.630Z,25.82
2022-08-04T07:05:44.339Z,25.85
2022-08-04T07:08:12.894Z,25.87
2022-08-04T07:10:41.766Z,25.88
2022-08-04T07:13:12.362Z,25.89
2022-08-04T07:15:44.920Z,25.88
2022-08-04T07:18:12.876Z,25.88
2022-08-04T07:20:43.138Z,25.94
2022-08-04T07:23:12.904Z,26.05
2022-08-04T07:25:59.692Z,26.20
2022-08-04T07:28:31.615Z,26.37
2022-08-04T07:30:59.919Z,26.50
2022-08-04T07:33:28.640Z,26.67
2022-08-04T07:36:05.626Z,26.83
2022-08-04T07:38:48.693Z,27.00
2022-08-04T07:41:39.092Z,27.13
2022-08-04T07:44:09.282Z,27.26
2022-08-04T07:46:37.448Z,27.34
2022-08-04T07:49:06.401Z,27.38
2022-08-04T07:51:35.549Z,27.48
2022-08-04T07:54:05.226Z,27.57
2022-08-04T07:56:34.414Z,27.68
2022-08-04T07:59:02.626Z,27.77
2022-08-04T08:01:32.287Z,27.91
2022-08-04T08:04:01.937Z,28.03
2022-08-04T08:06:34.727Z,28.12
2022-08-04T08:09:13.250Z,28.21
2022-08-04T08:12:36.715Z,28.30
2022-08-04T08:14:30.593Z,28.45
2022-08-04T08:17:02.533Z,28.60
2022-08-04T08:19:31.004Z,28.72
2022-08-04T08:22:00.824Z,28.83
2022-08-04T08:24:30.681Z,28.91
2022-08-04T08:27:00.106Z,28.99
2022-08-04T08:29:29.547Z,29.06
2022-08-04T08:32:02.760Z,29.14
2022-08-04T08:34:36.967Z,29.20
2022-08-04T08:37:13.449Z,29.27
2022-08-04T08:39:46.022Z,29.36
2022-08-04T08:42:41.489Z,29.41
2022-08-04T08:45:42.629Z,29.44
2022-08-04T08:48:31.472Z,29.52
2022-08-04T08:51:37.849Z,29.59
2022-08-04T08:54:29.880Z,29.70
2022-08-04T08:57:14.309Z,29.79
2022-08-04T08:59:55.339Z,29.84
2022-08-04T09:03:04.608Z,29.92
2022-08-04T09:05:51.747Z,30.00
2022-08-04T09:08:48.541Z,30.03
2022-08-04T09:11:22.029Z,30.08
2022-08-04T09:13:56.423Z,30.15
2022-08-04T09:16:35.463Z,30.20
2022-08-04T09:19:09.662Z,30.24
2022-08-04T09:21:52.121Z,30.33
2022-08-04T09:24:35.504Z,30.45
2022-08-04T09:27:15.461Z,30.58
2022-08-04T09:29:49.057Z,30.68
2022-08-04T09:32:27.357Z,30.73
2022-08-04T09:35:08.404Z,30.78
2022-08-04T09:37:46.114Z,30.85
2022-08-04T09:40:31.192Z,30.90
2022-08-04T09:43:57.220Z,30.94
2022-08-04T09:46:26.539Z,30.99
2022-08-04T09:48:59.901Z,30.95
2022-08-04T09:51:57.933Z,30.89
2022-08-04T09:54:33.215Z,30.92
2022-08-04T09:57:10.618Z,30.98
2022-08-04T09:59:47.889Z,31.11
2022-08-04T10:02:20.223Z,31.28
2022-08-04T10:04:50.366Z,31.44
2022-08-04T10:07:43.802Z,31.57
2022-08-04T10:10:37.191Z,31.65
2022-08-04T10:13:15.457Z,31.72
2022-08-04T10:16:12.579Z,31.74
2022-08-04T10:18:50.835Z,31.78
2022-08-04T10:21:27.837Z,31.85
2022-08-04T10:24:13.579Z,31.83
2022-08-04T10:26:53.114Z,31.88
2022-08-04T10:29:25.770Z,31.94
2022-08-04T10:32:04.331Z,31.95
2022-08-04T10:34:40.764Z,31.94
2022-08-04T10:37:20.262Z,31.98
2022-08-04T10:40:09.110Z,32.00
2022-08-04T10:42:43.001Z,32.09
2022-08-04T10:45:18.150Z,32.19
2022-08-04T10:48:01.514Z,32.29
2022-08-04T10:50:31.355Z,32.23
2022-08-04T10:53:21.550Z,32.22
2022-08-04T10:56:07.353Z,32.23
2022-08-04T10:58:47.396Z,32.37
2022-08-04T11:02:02.110Z,32.64
2022-08-04T11:04:30.680Z,32.96
2022-08-04T11:07:00.568Z,33.27
2022-08-04T11:09:29.989Z,33.39
2022-08-04T11:12:07.760Z,33.37
2022-08-04T11:14:40.983Z,33.23
2022-08-04T11:17:12.848Z,33.19
2022-08-04T11:19:53.184Z,33.09
2022-08-04T11:22:27.234Z,33.00
2022-08-04T11:25:02.378Z,32.90
2022-08-04T11:27:37.091Z,32.81
2022-08-04T11:30:08.796Z,32.76
2022-08-04T11:32:43.787Z,32.64
2022-08-04T11:35:18.462Z,32.58
2022-08-04T11:37:50.210Z,32.66
2022-08-04T11:40:23.953Z,32.71
2022-08-04T11:42:56.338Z,32.69
2022-08-04T11:45:32.404Z,32.75
2022-08-04T11:48:05.007Z,32.74
2022-08-04T11:50:41.441Z,32.73
2022-08-04T11:53:13.046Z,32.73
2022-08-04T11:56:07.548Z,32.65
2022-08-04T11:58:30.574Z,32.49
2022-08-04T12:01:07.335Z,32.27
2022-08-04T12:03:40.736Z,32.19
2022-08-04T12:06:18.769Z,32.13
2022-08-04T12:09:10.387Z,31.99
2022-08-04T12:11:55.787Z,31.66
2022-08-04T12:14:32.577Z,31.27
2022-08-04T12:17:02.244Z,31.29
2022-08-04T12:19:57.923Z,31.42
2022-08-04T12:22:31.448Z,31.36
2022-08-04T12:25:04.340Z,31.07
2022-08-04T12:27:36.215Z,31.12
2022-08-04T12:30:58.445Z,31.04
2022-08-04T12:33:00.527Z,31.01
2022-08-04T12:35:34.848Z,30.95
2022-08-04T12:38:07.218Z,31.02
2022-08-04T12:40:40.373Z,31.10
2022-08-04T12:43:12.697Z,31.06
2022-08-04T12:45:48.704Z,30.81
2022-08-04T12:48:21.309Z,30.94
2022-08-04T12:50:51.374Z,31.08
2022-08-04T12:53:31.839Z,31.10
2022-08-04T12:56:02.388Z,31.08
2022-08-04T12:58:42.960Z,31.06
2022-08-04T13:02:09.427Z,31.00
2022-08-04T13:04:06.330Z,30.89
2022-08-04T13:06:36.884Z,30.98
2022-08-04T13:09:10.080Z,31.03
2022-08-04T13:11:52.192Z,31.04
2022-08-04T13:14:27.490Z,31.12
2022-08-04T13:16:59.488Z,31.10
2022-08-04T13:19:28.848Z,31.08
2022-08-04T13:22:03.361Z,31.00
2022-08-04T13:24:56.870Z,31.11
2022-08-04T13:27:26.740Z,31.20
2022-08-04T13:30:08.914Z,31.15
2022-08-04T13:32:37.506Z,31.23
2022-08-04T13:35:09.920Z,31.27
2022-08-04T13:37:40.467Z,31.35
2022-08-04T13:40:13.518Z,31.47
2022-08-04T13:42:47.753Z,31.54
2022-08-04T13:45:19.998Z,31.63
2022-08-04T13:47:51.585Z,31.71
2022-08-04T13:50:23.480Z,31.69
2022-08-04T13:52:54.889Z,31.67
2022-08-04T13:55:31.089Z,31.57
2022-08-04T13:58:03.807Z,31.57
2022-08-04T14:00:45.218Z,31.67
2022-08-04T14:03:24.724Z,31.60
2022-08-04T14:06:16.714Z,31.73
2022-08-04T14:08:53.825Z,31.73
2022-08-04T14:12:10.461Z,31.84
2022-08-04T14:14:29.383Z,31.69
2022-08-04T14:17:04.135Z,31.59
2022-08-04T14:19:49.995Z,31.60
2022-08-04T14:22:33.607Z,31.54
2022-08-04T14:25:04.162Z,31.56
2022-08-04T14:27:43.248Z,31.61
2022-08-04T14:30:23.494Z,31.38
2022-08-04T14:32:57.731Z,31.37
2022-08-04T14:35:26.443Z,31.18
2022-08-04T14:38:08.479Z,31.22
2022-08-04T14:40:39.141Z,31.42
2022-08-04T14:43:09.687Z,31.45
2022-08-04T14:45:39.617Z,31.46
2022-08-04T14:48:23.328Z,31.32
2022-08-04T14:50:52.530Z,31.29
2022-08-04T14:53:22.421Z,31.23
2022-08-04T14:55:51.897Z,31.08
2022-08-04T14:58:35.854Z,30.96
2022-08-04T15:01:12.495Z,30.82
2022-08-04T15:03:49.830Z,30.75
2022-08-04T15:06:23.275Z,30.78
2022-08-04T15:08:52.856Z,30.78
2022-08-04T15:11:23.439Z,30.79
2022-08-04T15:13:53.362Z,30.72
2022-08-04T15:16:21.667Z,30.55
2022-08-04T15:18:49.921Z,30.50
2022-08-04T15:21:18.638Z,30.46
2022-08-04T15:23:46.427Z,30.26
2022-08-04T15:26:17.156Z,30.28
2022-08-04T15:28:51.320Z,29.95
2022-08-04T15:32:07.724Z,29.52
2022-08-04T15:34:11.782Z,29.48
2022-08-04T15:36:45.846Z,29.61
2022-08-04T15:39:35.870Z,29.68
2022-08-04T15:42:20.443Z,29.77
2022-08-04T15:45:17.646Z,29.64
2022-08-04T15:48:15.869Z,29.73
2022-08-04T15:51:03.761Z,29.80
2022-08-04T15:54:02.322Z,29.80
2022-08-04T15:56:48.398Z,29.69
2022-08-04T16:00:11.211Z,29.50
2022-08-04T16:02:46.973Z,29.47
2022-08-04T16:05:39.527Z,29.50
2022-08-04T16:08:20.458Z,29.58
2022-08-04T16:10:51.760Z,29.61
2022-08-04T16:13:21.381Z,29.47
2022-08-04T16:15:51.977Z,29.54
2022-08-04T16:18:39.770Z,29.57
2022-08-04T16:21:21.964Z,29.32
2022-08-04T16:24:07.672Z,29.48
2022-08-04T16:26:53.738Z,29.62
2022-08-04T16:29:32.248Z,29.44
2022-08-04T16:32:11.848Z,29.29
2022-08-04T16:34:49.661Z,29.24
2022-08-04T16:37:25.948Z,29.22
2022-08-04T16:40:33.341Z,29.08
2022-08-04T16:43:07.973Z,29.23
2022-08-04T16:45:48.048Z,29.21
2022-08-04T16:48:17.162Z,28.98
2022-08-04T16:50:50.684Z,28.94
2022-08-04T16:53:51.613Z,28.86
2022-08-04T16:56:11.224Z,28.90
2022-08-04T16:58:54.016Z,28.91
2022-08-04T17:01:33.257Z,28.89
2022-08-04T17:04:06.044Z,28.53
2022-08-04T17:06:36.287Z,28.62
2022-08-04T17:09:08.324Z,28.60
2022-08-04T17:11:36.353Z,28.49
2022-08-04T17:14:06.087Z,28.50
2022-08-04T17:16:36.148Z,28.55
2022-08-04T17:19:06.194Z,28.57
2022-08-04T17:21:36.266Z,28.57
2022-08-04T17:24:14.514Z,28.73
2022-08-04T17:26:53.974Z,28.68
2022-08-04T17:29:43.015Z,28.70
2022-08-04T17:32:15.960Z,28.78
2022-08-04T17:34:48.584Z,28.92
2022-08-04T17:40:11.419Z,28.83
2022-08-04T17:42:41.458Z,28.83
2022-08-04T17:45:39.864Z,28.85
2022-08-04T17:47:58.992Z,28.92
2022-08-04T17:50:27.501Z,28.94
2022-08-04T17:53:12.316Z,28.91
2022-08-04T17:58:32.582Z,28.81
2022-08-04T18:03:53.458Z,28.67
2022-08-04T18:06:25.710Z,28.48
2022-08-04T18:08:58.111Z,28.33
2022-08-04T18:11:41.510Z,28.32
2022-08-04T18:14:10.723Z,28.35
2022-08-04T18:16:44.608Z,28.24
2022-08-04T18:19:14.044Z,28.13
2022-08-04T18:21:46.080Z,28.17
2022-08-04T18:24:34.214Z,28.11
2022-08-04T18:27:19.018Z,28.06
2022-08-04T18:30:14.556Z,28.02
2022-08-04T18:32:35.611Z,28.02
2022-08-04T18:35:07.247Z,27.97
2022-08-04T18:38:05.769Z,27.96
2022-08-04T18:40:30.018Z,27.86
2022-08-04T18:43:04.595Z,27.83
2022-08-04T18:45:34.535Z,27.79
2022-08-04T18:48:04.030Z,27.79
2022-08-04T18:51:09.715Z,27.76
2022-08-04T18:53:35.685Z,27.74
2022-08-04T18:56:06.070Z,27.73
2022-08-04T18:58:35.624Z,27.73
2022-08-04T19:01:13.597Z,27.71
2022-08-04T19:03:44.119Z,27.66
2022-08-04T19:06:12.584Z,27.61
2022-08-04T19:08:42.445Z,27.61
2022-08-04T19:11:19.450Z,27.59
2022-08-04T19:14:00.131Z,27.53
2022-08-04T19:16:31.358Z,27.51
2022-08-04T19:19:00.312Z,27.48
2022-08-04T19:21:59.618Z,27.45
2022-08-04T19:24:31.752Z,27.43
2022-08-04T19:27:06.998Z,27.40
2022-08-04T19:29:41.227Z,27.33
2022-08-04T19:32:14.734Z,27.28
2022-08-04T19:34:46.002Z,27.22
2022-08-04T19:37:57.921Z,27.19
2022-08-04T19:40:06.207Z,27.20
2022-08-04T19:42:34.823Z,27.20
2022-08-04T19:45:05.124Z,27.17
2022-08-04T19:48:17.796Z,27.16
2022-08-04T19:50:23.654Z,27.08
2022-08-04T19:52:52.557Z,27.01
2022-08-04T19:55:22.213Z,26.87
2022-08-04T19:57:50.824Z,26.84
2022-08-04T20:00:33.136Z,26.81
2022-08-04T20:03:02.629Z,26.73
2022-08-04T20:05:52.576Z,26.40
2022-08-04T20:08:18.852Z,26.42
2022-08-04T20:10:51.544Z,26.38
2022-08-04T20:13:20.265Z,26.31
2022-08-04T20:15:57.530Z,26.23
2022-08-04T20:18:55.493Z,26.18
2022-08-04T20:21:36.654Z,26.10
2022-08-04T20:24:39.236Z,26.00
2022-08-04T20:27:07.801Z,25.89
2022-08-04T20:29:40.245Z,25.89
2022-08-04T20:32:10.462Z,25.93
2022-08-04T20:34:40.154Z,25.85
2022-08-04T20:37:10.104Z,25.81
2022-08-04T20:39:39.129Z,25.64
2022-08-04T20:42:07.515Z,25.53
2022-08-04T20:44:42.195Z,25.59
2022-08-04T20:47:15.443Z,25.52
2022-08-04T20:49:43.346Z,25.34
2022-08-04T20:52:18.127Z,25.14
2022-08-04T20:54:49.219Z,25.10
2022-08-04T20:57:48.131Z,25.08
2022-08-04T21:00:13.257Z,25.16
2022-08-04T21:02:42.723Z,25.13
2022-08-04T21:05:12.691Z,25.12
2022-08-04T21:07:43.764Z,24.96
2022-08-04T21:10:11.983Z,24.91
2022-08-04T21:12:39.917Z,24.97
2022-08-04T21:15:13.511Z,24.86
2022-08-04T21:20:32.453Z,24.82
2022-08-04T21:23:03.498Z,24.88
2022-08-04T21:25:32.266Z,24.82
2022-08-04T21:28:10.948Z,24.97
2022-08-04T21:30:52.833Z,25.02
2022-08-04T21:33:44.717Z,24.92
2022-08-04T21:36:13.869Z,24.96
2022-08-04T21:38:41.992Z,24.90
2022-08-04T21:41:24.167Z,24.91
2022-08-04T21:43:53.436Z,24.96
2022-08-04T21:46:22.023Z,24.96
2022-08-04T21:48:51.391Z,24.94
2022-08-04T21:51:57.478Z,24.97
2022-08-04T21:56:58.145Z,24.69
2022-08-04T21:59:30.527Z,24.64
2022-08-04T22:02:00.611Z,24.51
2022-08-04T22:04:31.094Z,24.50
2022-08-04T22:07:03.000Z,24.52
2022-08-04T22:09:38.574Z,24.62
2022-08-04T22:12:10.388Z,24.44
2022-08-04T22:14:40.075Z,24.25
2022-08-04T22:17:13.572Z,24.17
2022-08-04T22:19:56.336Z,23.68
2022-08-04T22:22:27.027Z,23.54
2022-08-04T22:25:01.372Z,23.17
2022-08-04T22:27:47.617Z,23.12
2022-08-04T22:30:17.775Z,23.17
2022-08-04T22:32:47.076Z,22.98
2022-08-04T22:35:36.545Z,22.87
2022-08-04T22:38:23.954Z,22.68
2022-08-04T22:40:58.174Z,22.72
2022-08-04T22:43:32.034Z,22.59
2022-08-04T22:46:03.657Z,22.60
2022-08-04T22:48:32.470Z,22.63
2022-08-04T22:51:02.649Z,22.68
2022-08-04T22:53:30.742Z,22.66
2022-08-04T22:56:09.184Z,22.55
2022-08-04T22:58:45.172Z,22.45
2022-08-04T23:01:18.586Z,22.38
2022-08-04T23:03:51.199Z,22.34
2022-08-04T23:06:28.670Z,22.16
2022-08-04T23:08:56.808Z,22.20
2022-08-04T23:11:24.962Z,21.94
2022-08-04T23:14:02.891Z,21.92
2022-08-04T23:16:31.236Z,22.01
2022-08-04T23:21:40.633Z,22.10
2022-08-04T23:24:09.520Z,22.21
2022-08-04T23:26:37.345Z,22.18
2022-08-04T23:29:05.199Z,22.00
2022-08-04T23:31:41.296Z,21.94
2022-08-04T23:34:20.763Z,21.93
2022-08-04T23:36:51.316Z,21.99
2022-08-04T23:39:19.127Z,21.93
2022-08-04T23:41:51.404Z,21.91
2022-08-04T23:44:25.193Z,21.94
2022-08-04T23:47:02.558Z,21.92
2022-08-04T23:49:44.515Z,21.73
2022-08-04T23:52:28.319Z,21.66
2022-08-04T23:54:59.033Z,21.71
2022-08-04T23:57:31.266Z,21.75
